Time,TemperatureF,DewpointF,PressureIn,WindDirection,WindDirectionDegrees,WindSpeedMPH,WindSpeedGustMPH,Humidity,HourlyPrecipIn,Conditions,Clouds,dailyrainin,SoftwareType,DateUTC
2013-01-13 12:28:00,39.2,37.0,29.81,NNE,23,5.1,5.1,92,0.02,,,0.00,WUHU216HW,2013-01-13 17:28:00,
2013-01-13 12:33:00,39.3,37.2,29.81,North,0,3.3,5.3,92,0.02,,,0.00,WUHU216HW,2013-01-13 17:33:00,
2013-01-13 12:38:00,39.0,36.8,29.81,SE,135,0.0,5.3,92,0.02,,,0.00,WUHU216HW,2013-01-13 17:38:00,
2013-01-13 12:43:00,39.0,36.8,29.81,SE,135,0.0,3.3,92,0.02,,,0.00,WUHU216HW,2013-01-13 17:43:00,
2013-01-13 12:48:00,39.0,36.8,29.81,SE,135,0.0,0.0,92,0.04,,,0.00,WUHU216HW,2013-01-13 17:48:00,
2013-01-13 12:53:00,39.0,36.8,29.80,SE,135,0.0,0.0,92,0.04,,,0.02,WUHU216HW,2013-01-13 17:53:00,
2013-01-13 12:58:00,39.0,36.8,29.80,NE,45,4.0,4.0,92,0.04,,,0.02,WUHU216HW,2013-01-13 17:58:00,
2013-01-13 13:03:00,39.0,36.8,29.78,NE,45,0.0,4.0,92,0.04,,,0.02,WUHU216HW,2013-01-13 18:03:00,
2013-01-13 13:08:00,39.2,37.0,29.78,NE,45,0.0,4.0,92,0.04,,,0.02,WUHU216HW,2013-01-13 18:08:00,
2013-01-13 13:13:00,39.3,37.2,29.78,NE,45,0.0,0.0,92,0.04,,,0.02,WUHU216HW,2013-01-13 18:13:00,
2013-01-13 13:18:00,39.3,37.2,29.78,NE,45,0.0,0.0,92,0.04,,,0.02,WUHU216HW,2013-01-13 18:18:00,
2013-01-13 13:23:00,39.3,37.2,29.78,NE,45,0.0,0.0,92,0.02,,,0.02,WUHU216HW,2013-01-13 18:23:00,
2013-01-13 13:28:00,39.3,37.2,29.79,NE,45,0.0,0.0,92,0.02,,,0.02,WUHU216HW,2013-01-13 18:28:00,
2013-01-13 13:33:00,39.3,37.2,29.80,North,0,0.0,0.0,92,0.04,,,0.04,WUHU216HW,2013-01-13 18:33:00,
2013-01-13 13:38:00,39.3,37.2,29.81,NNW,338,2.9,2.9,92,0.04,,,0.04,WUHU216HW,2013-01-13 18:38:00,
2013-01-13 13:43:00,39.3,37.2,29.84,West,270,5.1,5.1,92,0.04,,,0.04,WUHU216HW,2013-01-13 18:43:00,
2013-01-13 13:48:00,39.3,37.2,29.84,WNW,293,3.8,5.1,92,0.06,,,0.06,WUHU216HW,2013-01-13 18:48:00,
2013-01-13 13:53:00,39.0,36.8,29.84,WNW,293,1.3,6.7,92,0.06,,,0.08,WUHU216HW,2013-01-13 18:53:00,
2013-01-13 13:58:00,39.0,36.8,29.84,NW,315,10.0,10.0,92,0.08,,,0.10,WUHU216HW,2013-01-13 18:58:00,
2013-01-13 14:03:00,38.8,36.6,29.84,WNW,293,11.8,12.0,92,0.08,,,0.10,WUHU216HW,2013-01-13 19:03:00,
2013-01-13 14:08:00,38.8,36.4,29.84,West,270,4.4,12.0,91,0.10,,,0.12,WUHU216HW,2013-01-13 19:08:00,
2013-01-13 14:13:00,38.4,36.0,29.84,West,270,4.0,11.8,91,0.12,,,0.14,WUHU216HW,2013-01-13 19:13:00,
2013-01-13 14:18:00,38.3,35.8,29.84,SW,225,6.2,7.3,91,0.14,,,0.16,WUHU216HW,2013-01-13 19:18:00,
2013-01-13 14:23:00,38.1,35.6,29.85,NW,315,0.0,7.6,91,0.16,,,0.18,WUHU216HW,2013-01-13 19:23:00,
2013-01-13 14:28:00,37.9,35.5,29.85,West,270,8.0,8.0,91,0.16,,,0.18,WUHU216HW,2013-01-13 19:28:00,
2013-01-13 14:33:00,37.2,34.7,29.85,WNW,293,6.9,8.2,91,0.18,,,0.23,WUHU216HW,2013-01-13 19:33:00,
2013-01-13 14:38:00,37.0,34.6,29.86,WSW,248,0.0,12.3,91,0.20,,,0.25,WUHU216HW,2013-01-13 19:38:00,
2013-01-13 14:43:00,36.3,33.8,29.86,NW,315,0.0,12.3,91,0.20,,,0.26,WUHU216HW,2013-01-13 19:43:00,
2013-01-13 14:48:00,36.3,33.8,29.86,NW,315,0.0,13.6,91,0.18,,,0.26,WUHU216HW,2013-01-13 19:48:00,
2013-01-13 14:53:00,35.9,33.5,29.86,WNW,293,2.0,13.6,91,0.18,,,0.26,WUHU216HW,2013-01-13 19:53:00,
2013-01-13 14:58:00,35.4,33.1,29.86,WNW,293,4.2,8.7,91,0.22,,,0.33,WUHU216HW,2013-01-13 19:58:00,
2013-01-13 15:03:00,35.4,32.9,29.85,WSW,248,0.0,10.0,91,0.20,,,0.33,WUHU216HW,2013-01-13 20:03:00,
2013-01-13 15:08:00,35.2,32.8,29.86,NW,315,8.0,10.0,91,0.20,,,0.35,WUHU216HW,2013-01-13 20:08:00,
2013-01-13 15:13:00,34.8,32.6,29.87,SW,225,0.0,8.5,91,0.18,,,0.35,WUHU216HW,2013-01-13 20:13:00,
2013-01-13 15:18:00,34.8,32.4,29.88,West,270,6.2,6.2,91,0.20,,,0.37,WUHU216HW,2013-01-13 20:18:00,
2013-01-13 15:23:00,34.7,32.2,29.88,North,0,4.2,6.2,91,0.18,,,0.37,WUHU216HW,2013-01-13 20:23:00,
2013-01-13 15:28:00,34.5,32.0,29.88,West,270,0.0,6.2,91,0.16,,,0.37,WUHU216HW,2013-01-13 20:28:00,
2013-01-13 15:33:00,34.5,32.0,29.88,NW,315,6.9,6.9,91,0.16,,,0.39,WUHU216HW,2013-01-13 20:33:00,
2013-01-13 15:38:00,34.3,31.9,29.87,West,270,0.0,6.9,91,0.12,,,0.39,WUHU216HW,2013-01-13 20:38:00,
2013-01-13 15:43:00,34.3,31.9,29.86,NNW,338,2.9,7.6,91,0.12,,,0.39,WUHU216HW,2013-01-13 20:43:00,
2013-01-13 15:48:00,34.3,31.9,29.86,North,0,0.0,7.6,91,0.14,,,0.39,WUHU216HW,2013-01-13 20:48:00,
2013-01-13 15:53:00,34.3,31.9,29.86,North,0,0.0,5.1,91,0.14,,,0.41,WUHU216HW,2013-01-13 20:53:00,
2013-01-13 15:58:00,34.3,31.9,29.88,WNW,293,0.0,5.1,91,0.08,,,0.41,WUHU216HW,2013-01-13 20:58:00,
2013-01-13 16:03:00,34.3,31.9,29.88,NNW,338,3.8,3.8,91,0.06,,,0.41,WUHU216HW,2013-01-13 21:03:00,
2013-01-13 16:08:00,34.3,31.9,29.88,NNW,338,5.1,9.6,91,0.06,,,0.41,WUHU216HW,2013-01-13 21:08:00,
2013-01-13 16:13:00,34.1,31.7,29.88,WNW,293,1.7,9.6,91,0.04,,,0.41,WUHU216HW,2013-01-13 21:13:00,
2013-01-13 16:18:00,34.1,31.7,29.90,WNW,293,6.7,6.7,91,0.04,,,0.41,WUHU216HW,2013-01-13 21:18:00,
2013-01-13 16:23:00,33.9,31.5,29.90,WSW,248,3.8,9.3,91,0.04,,,0.41,WUHU216HW,2013-01-13 21:23:00,
2013-01-13 16:28:00,33.8,31.3,29.90,WNW,293,0.0,9.3,91,0.04,,,0.41,WUHU216HW,2013-01-13 21:28:00,
2013-01-13 16:33:00,33.8,31.3,29.89,WNW,293,0.0,4.2,91,0.02,,,0.41,WUHU216HW,2013-01-13 21:33:00,
2013-01-13 16:38:00,33.8,31.3,29.89,NNW,338,0.0,0.0,91,0.02,,,0.41,WUHU216HW,2013-01-13 21:38:00,
2013-01-13 16:43:00,33.8,31.3,29.91,WNW,293,1.3,2.9,91,0.02,,,0.41,WUHU216HW,2013-01-13 21:43:00,
2013-01-13 16:48:00,33.8,31.3,29.93,West,270,5.3,5.3,91,0.02,,,0.41,WUHU216HW,2013-01-13 21:48:00,
2013-01-13 16:53:00,33.8,31.3,29.93,NNW,338,1.5,5.3,91,0.02,,,0.43,WUHU216HW,2013-01-13 21:53:00,
2013-01-13 16:58:00,33.8,31.3,29.93,WSW,248,4.2,5.3,91,0.02,,,0.43,WUHU216HW,2013-01-13 21:58:00,
2013-01-13 17:03:00,33.6,31.1,29.93,West,270,3.8,4.2,91,0.02,,,0.43,WUHU216HW,2013-01-13 22:03:00,
2013-01-13 17:08:00,33.6,31.1,29.93,NW,315,1.7,5.8,91,0.04,,,0.45,WUHU216HW,2013-01-13 22:08:00,
2013-01-13 17:13:00,33.6,31.1,29.95,West,270,3.8,5.8,91,0.04,,,0.45,WUHU216HW,2013-01-13 22:13:00,
2013-01-13 17:18:00,33.4,31.0,29.95,WNW,293,7.8,9.1,91,0.04,,,0.45,WUHU216HW,2013-01-13 22:18:00,
2013-01-13 17:23:00,33.0,30.7,29.95,West,270,3.1,93.5,91,0.04,,,0.45,WUHU216HW,2013-01-13 22:23:00,
2013-01-13 17:28:00,32.9,30.5,29.94,West,270,2.9,93.5,91,0.04,,,0.45,WUHU216HW,2013-01-13 22:28:00,
2013-01-13 17:33:00,32.9,30.5,29.93,NNW,338,0.0,15.6,91,0.04,,,0.45,WUHU216HW,2013-01-13 22:33:00,
2013-01-13 17:38:00,32.7,30.3,29.94,North,0,8.5,12.3,91,0.04,,,0.45,WUHU216HW,2013-01-13 22:38:00,
2013-01-13 17:43:00,32.7,30.3,29.93,NW,315,6.4,17.2,91,0.04,,,0.45,WUHU216HW,2013-01-13 22:43:00,
2013-01-13 17:48:00,32.7,30.3,29.95,West,270,5.8,17.2,91,0.02,,,0.45,WUHU216HW,2013-01-13 22:48:00,
2013-01-13 17:53:00,32.7,30.3,29.95,West,270,0.0,7.1,91,0.02,,,0.45,WUHU216HW,2013-01-13 22:53:00,
2013-01-13 17:58:00,32.7,30.3,29.95,West,270,1.3,7.3,91,0.02,,,0.45,WUHU216HW,2013-01-13 22:58:00,
2013-01-13 18:03:00,32.7,30.3,29.97,West,270,1.7,8.9,91,0.00,,,0.45,WUHU216HW,2013-01-13 23:03:00,
2013-01-13 18:08:00,32.7,30.3,29.96,NW,315,7.3,8.9,91,0.00,,,0.45,WUHU216HW,2013-01-13 23:08:00,
2013-01-13 18:13:00,32.7,30.3,29.96,South,180,0.0,9.3,91,0.00,,,0.45,WUHU216HW,2013-01-13 23:13:00,
2013-01-13 18:18:00,32.7,30.3,29.98,WNW,293,9.1,9.3,91,0.00,,,0.45,WUHU216HW,2013-01-13 23:18:00,
2013-01-13 18:23:00,32.5,30.2,29.98,SW,225,0.0,9.1,91,0.00,,,0.45,WUHU216HW,2013-01-13 23:23:00,
2013-01-13 18:28:00,32.5,30.2,29.98,West,270,0.0,9.1,91,0.00,,,0.45,WUHU216HW,2013-01-13 23:28:00,
2013-01-13 18:33:00,32.5,30.2,29.99,WNW,293,5.3,5.3,91,0.00,,,0.45,WUHU216HW,2013-01-13 23:33:00,
2013-01-13 18:38:00,32.3,30.0,29.99,NNW,338,1.7,5.3,91,0.00,,,0.45,WUHU216HW,2013-01-13 23:38:00,
2013-01-13 18:43:00,32.3,30.0,29.99,WSW,248,1.1,12.3,91,0.00,,,0.45,WUHU216HW,2013-01-13 23:43:00,
2013-01-13 18:49:00,32.3,30.0,29.99,NW,315,5.5,12.3,91,0.00,,,0.45,WUHU216HW,2013-01-13 23:49:00,
2013-01-13 18:54:00,32.3,30.0,30.00,SW,225,6.2,6.2,91,0.00,,,0.45,WUHU216HW,2013-01-13 23:54:00,
2013-01-13 18:59:00,32.1,30.0,30.00,WNW,293,3.5,6.2,91,0.00,,,0.45,WUHU216HW,2013-01-13 23:59:00,
2013-01-13 19:04:00,32.1,29.6,30.00,WNW,293,4.4,4.4,90,0.00,,,0.45,WUHU216HW,2013-01-14 00:04:00,
2013-01-13 19:09:00,32.0,29.4,30.00,NNW,338,3.1,4.4,90,0.00,,,0.45,WUHU216HW,2013-01-14 00:09:00,
2013-01-13 19:14:00,31.8,29.3,30.01,WSW,248,0.0,10.5,90,0.00,,,0.45,WUHU216HW,2013-01-14 00:14:00,
2013-01-13 19:19:00,31.6,29.1,30.01,West,270,0.2,10.5,90,0.00,,,0.45,WUHU216HW,2013-01-14 00:19:00,
2013-01-13 19:24:00,31.6,29.1,30.01,West,270,8.5,8.5,90,0.00,,,0.45,WUHU216HW,2013-01-14 00:24:00,
2013-01-13 19:29:00,31.4,28.7,30.01,WNW,293,7.6,8.5,90,0.00,,,0.45,WUHU216HW,2013-01-14 00:29:00,
2013-01-13 19:34:00,31.2,28.7,30.01,West,270,4.2,7.6,90,0.00,,,0.45,WUHU216HW,2013-01-14 00:34:00,
2013-01-13 19:39:00,30.9,28.4,30.02,West,270,0.0,7.6,90,0.00,,,0.45,WUHU216HW,2013-01-14 00:39:00,
2013-01-13 19:44:00,30.9,28.4,30.03,NW,315,2.4,4.9,90,0.00,,,0.45,WUHU216HW,2013-01-14 00:44:00,
2013-01-13 19:49:00,30.9,28.4,30.03,NW,315,0.0,5.3,90,0.00,,,0.45,WUHU216HW,2013-01-14 00:49:00,
2013-01-13 19:54:00,30.7,28.2,30.04,WNW,293,4.4,5.3,90,0.00,,,0.45,WUHU216HW,2013-01-14 00:54:00,
2013-01-13 19:59:00,30.7,28.2,30.03,NW,315,7.1,7.1,90,0.00,,,0.45,WUHU216HW,2013-01-14 00:59:00,
2013-01-13 20:04:00,30.5,28.0,30.04,West,270,17.0,17.0,90,0.00,,,0.45,WUHU216HW,2013-01-14 01:04:00,
2013-01-13 20:09:00,30.3,27.8,30.03,West,270,12.9,17.0,90,0.00,,,0.45,WUHU216HW,2013-01-14 01:09:00,
2013-01-13 20:14:00,30.2,27.6,30.04,WSW,248,7.6,17.0,90,0.00,,,0.45,WUHU216HW,2013-01-14 01:14:00,
2013-01-13 20:19:00,30.0,27.5,30.04,SW,225,4.6,14.5,90,0.00,,,0.45,WUHU216HW,2013-01-14 01:19:00,
2013-01-13 20:24:00,30.0,27.5,30.04,WNW,293,2.4,8.7,90,0.00,,,0.45,WUHU216HW,2013-01-14 01:24:00,
2013-01-13 20:29:00,30.0,27.3,30.05,North,0,4.4,4.9,90,0.00,,,0.45,WUHU216HW,2013-01-14 01:29:00,
2013-01-13 20:34:00,29.8,27.3,30.05,NW,315,4.6,4.9,90,0.00,,,0.45,WUHU216HW,2013-01-14 01:34:00,
2013-01-13 20:39:00,29.8,27.3,30.05,NW,315,2.4,4.6,90,0.00,,,0.45,WUHU216HW,2013-01-14 01:39:00,
2013-01-13 20:44:00,29.8,27.0,30.05,NW,315,0.0,6.2,90,0.00,,,0.45,WUHU216HW,2013-01-14 01:44:00,
2013-01-13 20:49:00,29.6,26.8,30.05,WNW,293,0.0,6.2,89,0.00,,,0.45,WUHU216HW,2013-01-14 01:49:00,
2013-01-13 20:54:00,29.4,26.6,30.05,WNW,293,0.0,19.0,89,0.00,,,0.45,WUHU216HW,2013-01-14 01:54:00,
2013-01-13 20:59:00,29.3,26.4,30.06,WNW,293,8.2,19.0,89,0.00,,,0.45,WUHU216HW,2013-01-14 01:59:00,
2013-01-13 21:04:00,29.3,26.4,30.05,NW,315,6.7,16.7,89,0.00,,,0.45,WUHU216HW,2013-01-14 02:04:00,
2013-01-13 21:09:00,29.1,26.3,30.06,WSW,248,0.0,16.7,89,0.00,,,0.45,WUHU216HW,2013-01-14 02:09:00,
2013-01-13 21:14:00,29.1,26.3,30.06,WNW,293,0.0,6.9,89,0.00,,,0.45,WUHU216HW,2013-01-14 02:14:00,
2013-01-13 21:19:00,29.1,26.3,30.06,WNW,293,2.6,2.6,89,0.00,,,0.45,WUHU216HW,2013-01-14 02:19:00,
2013-01-13 21:24:00,29.1,26.3,30.06,NW,315,5.8,7.3,89,0.00,,,0.45,WUHU216HW,2013-01-14 02:24:00,
2013-01-13 21:29:00,28.9,26.1,30.07,NNW,338,6.2,7.3,89,0.00,,,0.45,WUHU216HW,2013-01-14 02:29:00,
2013-01-13 21:34:00,28.9,26.1,30.07,WNW,293,3.8,6.2,89,0.00,,,0.45,WUHU216HW,2013-01-14 02:34:00,
2013-01-13 21:39:00,28.7,25.9,30.08,NNW,338,7.6,7.6,89,0.00,,,0.45,WUHU216HW,2013-01-14 02:39:00,
2013-01-13 21:44:00,28.7,25.9,30.08,NNW,338,0.0,7.6,89,0.00,,,0.45,WUHU216HW,2013-01-14 02:44:00,
2013-01-13 21:49:00,28.7,25.9,30.08,West,270,0.0,7.6,89,0.00,,,0.45,WUHU216HW,2013-01-14 02:49:00,
2013-01-13 21:54:00,28.5,25.7,30.08,NW,315,5.5,7.6,89,0.00,,,0.45,WUHU216HW,2013-01-14 02:54:00,
2013-01-13 21:59:00,28.5,25.4,30.08,WNW,293,0.0,6.7,88,0.00,,,0.45,WUHU216HW,2013-01-14 02:59:00,
2013-01-13 22:04:00,28.2,25.1,30.08,NW,315,15.4,15.4,88,0.00,,,0.45,WUHU216HW,2013-01-14 03:04:00,
2013-01-13 22:09:00,28.2,25.1,30.08,NNW,338,8.0,15.4,88,0.00,,,0.45,WUHU216HW,2013-01-14 03:09:00,
2013-01-13 22:14:00,28.0,24.9,30.09,West,270,2.6,15.4,88,0.00,,,0.45,WUHU216HW,2013-01-14 03:14:00,
2013-01-13 22:19:00,28.0,24.9,30.09,NNW,338,8.9,9.8,88,0.00,,,0.45,WUHU216HW,2013-01-14 03:19:00,
2013-01-13 22:24:00,27.6,24.5,30.10,WSW,248,0.0,9.8,88,0.00,,,0.45,WUHU216HW,2013-01-14 03:24:00,
2013-01-13 22:29:00,27.6,24.5,30.10,NNW,338,8.5,8.9,88,0.00,,,0.45,WUHU216HW,2013-01-14 03:29:00,
2013-01-13 22:34:00,27.5,24.4,30.10,WNW,293,2.4,8.5,88,0.00,,,0.45,WUHU216HW,2013-01-14 03:34:00,
2013-01-13 22:39:00,27.3,23.9,30.11,SW,225,0.0,8.5,87,0.00,,,0.45,WUHU216HW,2013-01-14 03:39:00,
2013-01-13 22:44:00,27.3,24.2,30.11,West,270,5.5,5.5,88,0.00,,,0.45,WUHU216HW,2013-01-14 03:44:00,
2013-01-13 22:49:00,27.3,24.2,30.11,NW,315,10.0,10.0,88,0.00,,,0.45,WUHU216HW,2013-01-14 03:49:00,
2013-01-13 22:54:00,27.1,24.0,30.12,North,0,5.1,10.0,88,0.00,,,0.45,WUHU216HW,2013-01-14 03:54:00,
2013-01-13 22:59:00,27.1,24.0,30.12,West,270,3.8,5.5,88,0.00,,,0.45,WUHU216HW,2013-01-14 03:59:00,
2013-01-13 23:04:00,27.1,24.0,30.12,West,270,0.0,5.3,88,0.00,,,0.45,WUHU216HW,2013-01-14 04:04:00,
2013-01-13 23:09:00,26.9,23.8,30.12,West,270,5.1,5.1,88,0.00,,,0.45,WUHU216HW,2013-01-14 04:09:00,
2013-01-13 23:14:00,26.9,23.8,30.13,NW,315,5.8,5.8,88,0.00,,,0.45,WUHU216HW,2013-01-14 04:14:00,
2013-01-13 23:19:00,26.9,23.5,30.13,NNW,338,7.8,7.8,87,0.00,,,0.45,WUHU216HW,2013-01-14 04:19:00,
2013-01-13 23:24:00,26.7,23.3,30.13,NW,315,0.0,7.8,87,0.00,,,0.45,WUHU216HW,2013-01-14 04:24:00,
2013-01-13 23:29:00,26.7,23.3,30.14,WNW,293,0.0,4.2,87,0.00,,,0.45,WUHU216HW,2013-01-14 04:29:00,
2013-01-13 23:34:00,26.7,23.3,30.13,WNW,293,4.9,4.9,87,0.00,,,0.45,WUHU216HW,2013-01-14 04:34:00,
2013-01-13 23:39:00,26.7,23.6,30.14,West,270,0.0,4.9,88,0.00,,,0.45,WUHU216HW,2013-01-14 04:39:00,
2013-01-13 23:44:00,26.7,23.6,30.14,SW,225,0.0,2.0,88,0.00,,,0.45,WUHU216HW,2013-01-14 04:44:00,
2013-01-13 23:49:00,26.6,23.5,30.14,West,270,0.0,7.1,88,0.00,,,0.45,WUHU216HW,2013-01-14 04:49:00,
2013-01-13 23:54:00,26.4,23.3,30.14,NW,315,0.8,7.6,88,0.00,,,0.45,WUHU216HW,2013-01-14 04:54:00,
2013-01-13 23:59:00,26.4,23.0,30.14,West,270,0.0,7.6,87,0.00,,,0.45,WUHU216HW,2013-01-14 04:59:00,